sensor_id;sensor_type;location;lat;lon;timestamp;P1;durP1;ratioP1;P2;durP2;ratioP2
56073;SDS011;41950;55.840;37.442;2022-12-24T00:02:17;7.13;;;6.25;;
56073;SDS011;41950;55.840;37.442;2022-12-24T00:04:44;7.15;;;6.45;;
56073;SDS011;41950;55.840;37.442;2022-12-24T00:07:10;6.75;;;5.93;;
56073;SDS011;41950;55.840;37.442;2022-12-24T00:09:35;7.57;;;6.82;;
56073;SDS011;41950;55.840;37.442;2022-12-24T00:12:01;9.63;;;7.70;;
56073;SDS011;41950;55.840;37.442;2022-12-24T00:14:27;9.32;;;8.43;;
56073;SDS011;41950;55.840;37.442;2022-12-24T00:16:52;10.38;;;8.98;;
56073;SDS011;41950;55.840;37.442;2022-12-24T00:19:18;10.27;;;9.18;;
56073;SDS011;41950;55.840;37.442;2022-12-24T00:21:43;9.85;;;8.75;;
56073;SDS011;41950;55.840;37.442;2022-12-24T00:24:09;9.05;;;8.00;;
56073;SDS011;41950;55.840;37.442;2022-12-24T00:26:35;10.07;;;8.98;;
56073;SDS011;41950;55.840;37.442;2022-12-24T00:29:00;10.23;;;8.55;;
56073;SDS011;41950;55.840;37.442;2022-12-24T00:31:26;9.70;;;8.70;;
56073;SDS011;41950;55.840;37.442;2022-12-24T00:33:52;9.80;;;8.75;;
56073;SDS011;41950;55.840;37.442;2022-12-24T00:36:19;10.68;;;9.57;;
56073;SDS011;41950;55.840;37.442;2022-12-24T00:38:45;10.40;;;8.55;;
56073;SDS011;41950;55.840;37.442;2022-12-24T00:41:12;9.98;;;8.65;;
56073;SDS011;41950;55.840;37.442;2022-12-24T00:44:00;8.63;;;7.68;;
56073;SDS011;41950;55.840;37.442;2022-12-24T00:46:28;9.50;;;8.50;;
56073;SDS011;41950;55.840;37.442;2022-12-24T00:48:55;8.60;;;7.70;;
56073;SDS011;41950;55.840;37.442;2022-12-24T00:51:21;9.98;;;8.95;;
56073;SDS011;41950;55.840;37.442;2022-12-24T00:53:48;9.98;;;8.75;;
56073;SDS011;41950;55.840;37.442;2022-12-24T00:56:14;9.35;;;7.95;;
56073;SDS011;41950;55.840;37.442;2022-12-24T00:58:40;10.85;;;8.85;;
56073;SDS011;41950;55.840;37.442;2022-12-24T01:01:05;9.50;;;7.63;;
56073;SDS011;41950;55.840;37.442;2022-12-24T01:03:31;10.32;;;9.07;;
56073;SDS011;41950;55.840;37.442;2022-12-24T01:06:01;12.10;;;10.43;;
56073;SDS011;41950;55.840;37.442;2022-12-24T01:08:34;10.90;;;9.70;;
56073;SDS011;41950;55.840;37.442;2022-12-24T01:11:01;11.55;;;10.30;;
56073;SDS011;41950;55.840;37.442;2022-12-24T01:13:28;11.35;;;9.68;;
56073;SDS011;41950;55.840;37.442;2022-12-24T01:15:53;12.27;;;10.70;;
56073;SDS011;41950;55.840;37.442;2022-12-24T01:18:20;14.18;;;11.40;;
56073;SDS011;41950;55.840;37.442;2022-12-24T01:20:53;15.48;;;11.20;;
56073;SDS011;41950;55.840;37.442;2022-12-24T01:23:21;15.43;;;12.38;;
56073;SDS011;41950;55.840;37.442;2022-12-24T01:25:46;14.60;;;11.48;;
56073;SDS011;41950;55.840;37.442;2022-12-24T01:28:12;16.02;;;13.35;;
56073;SDS011;41950;55.840;37.442;2022-12-24T01:30:39;14.98;;;11.55;;
56073;SDS011;41950;55.840;37.442;2022-12-24T01:33:05;15.82;;;13.32;;
56073;SDS011;41950;55.840;37.442;2022-12-24T01:35:31;15.50;;;12.90;;
56073;SDS011;41950;55.840;37.442;2022-12-24T01:37:57;17.92;;;14.65;;
56073;SDS011;41950;55.840;37.442;2022-12-24T01:40:24;16.30;;;13.60;;
56073;SDS011;41950;55.840;37.442;2022-12-24T01:43:16;15.73;;;13.98;;
56073;SDS011;41950;55.840;37.442;2022-12-24T01:45:51;18.33;;;14.55;;
56073;SDS011;41950;55.840;37.442;2022-12-24T01:48:32;15.57;;;13.88;;
56073;SDS011;41950;55.840;37.442;2022-12-24T01:53:56;16.58;;;13.90;;
56073;SDS011;41950;55.840;37.442;2022-12-24T01:56:25;17.05;;;14.02;;
56073;SDS011;41950;55.840;37.442;2022-12-24T01:58:54;17.92;;;15.35;;
56073;SDS011;41950;55.840;37.442;2022-12-24T02:01:23;17.20;;;12.82;;
56073;SDS011;41950;55.840;37.442;2022-12-24T02:03:49;16.25;;;13.57;;
56073;SDS011;41950;55.840;37.442;2022-12-24T02:06:15;18.20;;;15.45;;
56073;SDS011;41950;55.840;37.442;2022-12-24T02:08:42;17.98;;;13.70;;
56073;SDS011;41950;55.840;37.442;2022-12-24T02:11:09;17.60;;;15.25;;
56073;SDS011;41950;55.840;37.442;2022-12-24T02:13:35;20.50;;;15.52;;
56073;SDS011;41950;55.840;37.442;2022-12-24T02:24:08;16.77;;;13.73;;
56073;SDS011;41950;55.840;37.442;2022-12-24T02:32:54;21.23;;;16.92;;
56073;SDS011;41950;55.840;37.442;2022-12-24T02:35:40;17.95;;;13.93;;
56073;SDS011;41950;55.840;37.442;2022-12-24T08:44:32;10.73;;;7.68;;
56073;SDS011;41950;55.840;37.442;2022-12-24T08:46:57;11.90;;;9.80;;
56073;SDS011;41950;55.840;37.442;2022-12-24T08:49:24;12.65;;;10.48;;
56073;SDS011;41950;55.840;37.442;2022-12-24T08:51:50;19.10;;;11.63;;
56073;SDS011;41950;55.840;37.442;2022-12-24T08:54:16;13.07;;;9.40;;
56073;SDS011;41950;55.840;37.442;2022-12-24T08:56:41;12.77;;;9.98;;
56073;SDS011;41950;55.840;37.442;2022-12-24T08:59:07;11.77;;;9.73;;
56073;SDS011;41950;55.840;37.442;2022-12-24T09:01:32;11.75;;;9.18;;
56073;SDS011;41950;55.840;37.442;2022-12-24T09:04:00;11.90;;;8.50;;
56073;SDS011;41950;55.840;37.442;2022-12-24T09:06:26;11.48;;;10.02;;
56073;SDS011;41950;55.840;37.442;2022-12-24T09:08:52;12.23;;;10.27;;
56073;SDS011;41950;55.840;37.442;2022-12-24T09:11:18;10.68;;;8.75;;
56073;SDS011;41950;55.840;37.442;2022-12-24T09:13:44;10.93;;;9.52;;
56073;SDS011;41950;55.840;37.442;2022-12-24T09:16:11;11.55;;;9.60;;
56073;SDS011;41950;55.840;37.442;2022-12-24T09:18:37;10.77;;;8.48;;
56073;SDS011;41950;55.840;37.442;2022-12-24T09:21:04;11.77;;;9.63;;
56073;SDS011;41950;55.840;37.442;2022-12-24T09:23:35;11.07;;;8.30;;
56073;SDS011;41950;55.840;37.442;2022-12-24T09:26:07;10.93;;;8.73;;
56073;SDS011;41950;55.840;37.442;2022-12-24T09:28:36;10.27;;;8.73;;
56073;SDS011;41950;55.840;37.442;2022-12-24T09:31:04;10.45;;;7.95;;
56073;SDS011;41950;55.840;37.442;2022-12-24T09:33:35;10.45;;;8.38;;
56073;SDS011;41950;55.840;37.442;2022-12-24T09:36:02;10.73;;;8.25;;
56073;SDS011;41950;55.840;37.442;2022-12-24T09:38:29;9.43;;;8.10;;
56073;SDS011;41950;55.840;37.442;2022-12-24T09:40:55;9.65;;;6.88;;
56073;SDS011;41950;55.840;37.442;2022-12-24T09:43:28;9.13;;;7.57;;
56073;SDS011;41950;55.840;37.442;2022-12-24T09:48:34;9.43;;;7.68;;
56073;SDS011;41950;55.840;37.442;2022-12-24T09:51:07;10.13;;;6.88;;
56073;SDS011;41950;55.840;37.442;2022-12-24T09:53:50;9.85;;;7.32;;
56073;SDS011;41950;55.840;37.442;2022-12-24T09:56:37;10.68;;;7.85;;
56073;SDS011;41950;55.840;37.442;2022-12-24T09:59:06;9.50;;;7.68;;
56073;SDS011;41950;55.840;37.442;2022-12-24T10:01:37;8.60;;;7.15;;
56073;SDS011;41950;55.840;37.442;2022-12-24T10:04:13;9.25;;;7.38;;
56073;SDS011;41950;55.840;37.442;2022-12-24T10:10:00;9.07;;;7.50;;
56073;SDS011;41950;55.840;37.442;2022-12-24T10:28:52;10.70;;;7.63;;
56073;SDS011;41950;55.840;37.442;2022-12-24T10:31:34;11.23;;;8.55;;
56073;SDS011;41950;55.840;37.442;2022-12-24T10:34:01;10.25;;;7.97;;
56073;SDS011;41950;55.840;37.442;2022-12-24T10:36:40;8.15;;;6.53;;
56073;SDS011;41950;55.840;37.442;2022-12-24T10:39:09;9.48;;;7.50;;
56073;SDS011;41950;55.840;37.442;2022-12-24T10:41:49;9.60;;;7.15;;
56073;SDS011;41950;55.840;37.442;2022-12-24T10:44:17;8.82;;;7.07;;
56073;SDS011;41950;55.840;37.442;2022-12-24T10:46:46;8.85;;;7.07;;
56073;SDS011;41950;55.840;37.442;2022-12-24T10:49:16;8.63;;;6.72;;
56073;SDS011;41950;55.840;37.442;2022-12-24T10:51:49;9.48;;;7.47;;
56073;SDS011;41950;55.840;37.442;2022-12-24T10:54:20;9.90;;;7.30;;
56073;SDS011;41950;55.840;37.442;2022-12-24T10:56:50;8.85;;;7.25;;
56073;SDS011;41950;55.840;37.442;2022-12-24T10:59:30;9.07;;;7.10;;
56073;SDS011;41950;55.840;37.442;2022-12-24T11:04:54;7.95;;;6.43;;
56073;SDS011;41950;55.840;37.442;2022-12-24T11:07:21;9.98;;;8.07;;
56073;SDS011;41950;55.840;37.442;2022-12-24T11:09:58;8.20;;;6.43;;
56073;SDS011;41950;55.840;37.442;2022-12-24T11:12:39;10.07;;;7.72;;
56073;SDS011;41950;55.840;37.442;2022-12-24T11:15:26;10.80;;;7.72;;
56073;SDS011;41950;55.840;37.442;2022-12-24T11:17:59;10.90;;;7.22;;
56073;SDS011;41950;55.840;37.442;2022-12-24T11:20:29;6.80;;;4.93;;
56073;SDS011;41950;55.840;37.442;2022-12-24T11:22:57;7.78;;;5.80;;
56073;SDS011;41950;55.840;37.442;2022-12-24T11:25:27;8.95;;;6.60;;
56073;SDS011;41950;55.840;37.442;2022-12-24T11:28:39;6.88;;;5.88;;
56073;SDS011;41950;55.840;37.442;2022-12-24T11:33:24;6.30;;;5.18;;
56073;SDS011;41950;55.840;37.442;2022-12-24T11:36:11;7.78;;;5.32;;
56073;SDS011;41950;55.840;37.442;2022-12-24T11:38:38;7.63;;;5.90;;
56073;SDS011;41950;55.840;37.442;2022-12-24T11:41:08;6.50;;;5.20;;
56073;SDS011;41950;55.840;37.442;2022-12-24T11:43:50;6.72;;;5.70;;
56073;SDS011;41950;55.840;37.442;2022-12-24T11:49:06;6.68;;;5.97;;
56073;SDS011;41950;55.840;37.442;2022-12-24T11:52:03;8.07;;;5.93;;
56073;SDS011;41950;55.840;37.442;2022-12-24T12:01:13;7.30;;;5.35;;
56073;SDS011;41950;55.840;37.442;2022-12-24T12:03:45;7.28;;;5.70;;
56073;SDS011;41950;55.840;37.442;2022-12-24T12:09:05;6.05;;;5.30;;
56073;SDS011;41950;55.840;37.442;2022-12-24T12:11:37;6.72;;;5.53;;
56073;SDS011;41950;55.840;37.442;2022-12-24T12:14:13;7.05;;;5.57;;
56073;SDS011;41950;55.840;37.442;2022-12-24T12:17:00;6.50;;;4.95;;
56073;SDS011;41950;55.840;37.442;2022-12-24T12:19:45;6.32;;;5.53;;
56073;SDS011;41950;55.840;37.442;2022-12-24T12:22:25;7.57;;;5.82;;
56073;SDS011;41950;55.840;37.442;2022-12-24T12:25:00;6.50;;;5.03;;
56073;SDS011;41950;55.840;37.442;2022-12-24T12:27:36;7.22;;;5.40;;
56073;SDS011;41950;55.840;37.442;2022-12-24T12:30:13;6.88;;;5.70;;
56073;SDS011;41950;55.840;37.442;2022-12-24T12:35:25;6.40;;;5.57;;
56073;SDS011;41950;55.840;37.442;2022-12-24T12:41:08;8.00;;;5.75;;
56073;SDS011;41950;55.840;37.442;2022-12-24T12:46:25;6.10;;;4.35;;
56073;SDS011;41950;55.840;37.442;2022-12-24T12:57:18;6.22;;;5.40;;
56073;SDS011;41950;55.840;37.442;2022-12-24T12:59:51;7.95;;;5.75;;
56073;SDS011;41950;55.840;37.442;2022-12-24T13:07:38;10.35;;;6.32;;
56073;SDS011;41950;55.840;37.442;2022-12-24T13:13:12;7.93;;;6.10;;
56073;SDS011;41950;55.840;37.442;2022-12-24T13:18:49;9.05;;;6.57;;
56073;SDS011;41950;55.840;37.442;2022-12-24T13:21:32;7.78;;;6.45;;
56073;SDS011;41950;55.840;37.442;2022-12-24T13:29:41;7.57;;;5.05;;
56073;SDS011;41950;55.840;37.442;2022-12-24T13:40:02;6.85;;;5.18;;
56073;SDS011;41950;55.840;37.442;2022-12-24T13:47:55;5.85;;;5.20;;
56073;SDS011;41950;55.840;37.442;2022-12-24T13:50:43;6.35;;;5.70;;
56073;SDS011;41950;55.840;37.442;2022-12-24T13:58:48;9.18;;;6.30;;
56073;SDS011;41950;55.840;37.442;2022-12-24T14:01:36;6.68;;;6.00;;
56073;SDS011;41950;55.840;37.442;2022-12-24T14:04:06;8.00;;;5.95;;
56073;SDS011;41950;55.840;37.442;2022-12-24T14:06:35;6.80;;;5.88;;
56073;SDS011;41950;55.840;37.442;2022-12-24T14:09:11;5.20;;;4.07;;
56073;SDS011;41950;55.840;37.442;2022-12-24T14:16:57;8.23;;;7.30;;
56073;SDS011;41950;55.840;37.442;2022-12-24T14:21:58;7.75;;;6.80;;
56073;SDS011;41950;55.840;37.442;2022-12-24T14:24:35;9.45;;;7.05;;
56073;SDS011;41950;55.840;37.442;2022-12-24T14:27:19;7.63;;;6.72;;
56073;SDS011;41950;55.840;37.442;2022-12-24T14:32:19;8.25;;;7.35;;
56073;SDS011;41950;55.840;37.442;2022-12-24T14:34:45;8.70;;;5.65;;
56073;SDS011;41950;55.840;37.442;2022-12-24T14:37:11;7.72;;;6.25;;
56073;SDS011;41950;55.840;37.442;2022-12-24T14:39:39;8.05;;;6.78;;
56073;SDS011;41950;55.840;37.442;2022-12-24T14:47:29;7.70;;;6.90;;
56073;SDS011;41950;55.840;37.442;2022-12-24T14:53:17;7.97;;;6.63;;
56073;SDS011;41950;55.840;37.442;2022-12-24T14:55:50;7.78;;;6.95;;
56073;SDS011;41950;55.840;37.442;2022-12-24T14:58:26;9.55;;;7.50;;
56073;SDS011;41950;55.840;37.442;2022-12-24T15:00:57;8.18;;;6.80;;
56073;SDS011;41950;55.840;37.442;2022-12-24T15:03:31;8.88;;;7.70;;
56073;SDS011;41950;55.840;37.442;2022-12-24T15:08:48;8.32;;;7.32;;
56073;SDS011;41950;55.840;37.442;2022-12-24T15:11:18;7.68;;;5.00;;
56073;SDS011;41950;55.840;37.442;2022-12-24T15:13:47;11.80;;;8.02;;
56073;SDS011;41950;55.840;37.442;2022-12-24T15:16:27;8.25;;;6.88;;
56073;SDS011;41950;55.840;37.442;2022-12-24T15:19:00;9.13;;;6.80;;
56073;SDS011;41950;55.840;37.442;2022-12-24T15:21:30;9.30;;;7.60;;
56073;SDS011;41950;55.840;37.442;2022-12-24T15:23:58;7.70;;;6.90;;
56073;SDS011;41950;55.840;37.442;2022-12-24T15:26:30;8.15;;;6.15;;
56073;SDS011;41950;55.840;37.442;2022-12-24T15:28:59;8.88;;;7.03;;
56073;SDS011;41950;55.840;37.442;2022-12-24T15:31:25;6.88;;;5.85;;
56073;SDS011;41950;55.840;37.442;2022-12-24T15:33:54;7.00;;;6.22;;
56073;SDS011;41950;55.840;37.442;2022-12-24T15:36:28;7.40;;;6.63;;
56073;SDS011;41950;55.840;37.442;2022-12-24T15:39:12;8.32;;;7.43;;
56073;SDS011;41950;55.840;37.442;2022-12-24T15:41:42;9.52;;;8.63;;
56073;SDS011;41950;55.840;37.442;2022-12-24T15:44:29;8.68;;;7.68;;
56073;SDS011;41950;55.840;37.442;2022-12-24T15:46:59;7.82;;;7.03;;
56073;SDS011;41950;55.840;37.442;2022-12-24T15:49:27;7.65;;;6.95;;
56073;SDS011;41950;55.840;37.442;2022-12-24T15:52:01;7.93;;;7.13;;
56073;SDS011;41950;55.840;37.442;2022-12-24T15:54:33;8.43;;;6.90;;
56073;SDS011;41950;55.840;37.442;2022-12-24T15:57:10;8.20;;;6.97;;
56073;SDS011;41950;55.840;37.442;2022-12-24T15:59:37;9.30;;;8.30;;
56073;SDS011;41950;55.840;37.442;2022-12-24T16:08:17;9.10;;;8.20;;
56073;SDS011;41950;55.840;37.442;2022-12-24T16:10:50;7.50;;;6.63;;
56073;SDS011;41950;55.840;37.442;2022-12-24T16:13:31;7.55;;;6.85;;
56073;SDS011;41950;55.840;37.442;2022-12-24T16:16:03;8.27;;;7.47;;
56073;SDS011;41950;55.840;37.442;2022-12-24T16:21:06;8.00;;;6.90;;
56073;SDS011;41950;55.840;37.442;2022-12-24T16:23:37;7.60;;;6.80;;
56073;SDS011;41950;55.840;37.442;2022-12-24T16:26:10;7.00;;;6.30;;
56073;SDS011;41950;55.840;37.442;2022-12-24T16:28:38;7.57;;;6.82;;
56073;SDS011;41950;55.840;37.442;2022-12-24T16:31:33;8.27;;;7.43;;
56073;SDS011;41950;55.840;37.442;2022-12-24T16:34:18;9.02;;;7.18;;
56073;SDS011;41950;55.840;37.442;2022-12-24T16:36:48;9.27;;;8.27;;
56073;SDS011;41950;55.840;37.442;2022-12-24T16:39:32;7.90;;;6.63;;
56073;SDS011;41950;55.840;37.442;2022-12-24T16:42:17;9.63;;;8.35;;
56073;SDS011;41950;55.840;37.442;2022-12-24T16:45:04;9.45;;;7.47;;
56073;SDS011;41950;55.840;37.442;2022-12-24T16:47:31;10.02;;;9.00;;
56073;SDS011;41950;55.840;37.442;2022-12-24T16:50:13;10.07;;;8.48;;
56073;SDS011;41950;55.840;37.442;2022-12-24T16:52:43;10.52;;;7.43;;
56073;SDS011;41950;55.840;37.442;2022-12-24T16:55:12;6.18;;;5.57;;
56073;SDS011;41950;55.840;37.442;2022-12-24T16:57:38;5.40;;;4.50;;
56073;SDS011;41950;55.840;37.442;2022-12-24T17:00:05;5.45;;;4.40;;
56073;SDS011;41950;55.840;37.442;2022-12-24T17:02:33;6.57;;;5.13;;
56073;SDS011;41950;55.840;37.442;2022-12-24T17:04:58;5.90;;;5.10;;
56073;SDS011;41950;55.840;37.442;2022-12-24T17:07:24;5.50;;;4.90;;
56073;SDS011;41950;55.840;37.442;2022-12-24T17:09:50;6.88;;;5.60;;
56073;SDS011;41950;55.840;37.442;2022-12-24T17:12:15;7.10;;;5.30;;
56073;SDS011;41950;55.840;37.442;2022-12-24T17:14:41;5.72;;;4.78;;
56073;SDS011;41950;55.840;37.442;2022-12-24T17:17:09;5.40;;;4.18;;
56073;SDS011;41950;55.840;37.442;2022-12-24T17:19:43;5.95;;;4.25;;
56073;SDS011;41950;55.840;37.442;2022-12-24T17:22:08;4.82;;;3.97;;
56073;SDS011;41950;55.840;37.442;2022-12-24T17:24:34;5.72;;;3.92;;
56073;SDS011;41950;55.840;37.442;2022-12-24T17:27:00;5.85;;;4.70;;
56073;SDS011;41950;55.840;37.442;2022-12-24T17:29:25;5.38;;;4.40;;
56073;SDS011;41950;55.840;37.442;2022-12-24T17:31:51;5.72;;;4.75;;
56073;SDS011;41950;55.840;37.442;2022-12-24T17:34:17;5.75;;;4.95;;
56073;SDS011;41950;55.840;37.442;2022-12-24T17:36:43;6.20;;;5.50;;
56073;SDS011;41950;55.840;37.442;2022-12-24T17:39:08;4.60;;;3.55;;
56073;SDS011;41950;55.840;37.442;2022-12-24T17:41:34;4.72;;;3.70;;
56073;SDS011;41950;55.840;37.442;2022-12-24T17:43:59;4.63;;;3.95;;
56073;SDS011;41950;55.840;37.442;2022-12-24T17:46:25;4.68;;;3.67;;
56073;SDS011;41950;55.840;37.442;2022-12-24T17:48:51;5.15;;;3.60;;
56073;SDS011;41950;55.840;37.442;2022-12-24T17:51:18;4.32;;;3.33;;
56073;SDS011;41950;55.840;37.442;2022-12-24T17:53:45;5.18;;;3.45;;
56073;SDS011;41950;55.840;37.442;2022-12-24T17:56:11;4.75;;;3.50;;
56073;SDS011;41950;55.840;37.442;2022-12-24T17:58:40;5.85;;;3.00;;
56073;SDS011;41950;55.840;37.442;2022-12-24T18:01:17;3.97;;;3.05;;
56073;SDS011;41950;55.840;37.442;2022-12-24T18:03:47;4.20;;;3.00;;
56073;SDS011;41950;55.840;37.442;2022-12-24T18:06:15;3.60;;;2.88;;
56073;SDS011;41950;55.840;37.442;2022-12-24T18:08:41;4.28;;;3.30;;
56073;SDS011;41950;55.840;37.442;2022-12-24T18:11:25;4.10;;;3.10;;
56073;SDS011;41950;55.840;37.442;2022-12-24T18:13:57;4.07;;;2.88;;
56073;SDS011;41950;55.840;37.442;2022-12-24T18:19:00;4.43;;;3.55;;
56073;SDS011;41950;55.840;37.442;2022-12-24T18:21:28;4.20;;;3.42;;
56073;SDS011;41950;55.840;37.442;2022-12-24T18:23:54;4.60;;;3.45;;
56073;SDS011;41950;55.840;37.442;2022-12-24T18:26:21;4.38;;;3.20;;
56073;SDS011;41950;55.840;37.442;2022-12-24T18:28:48;4.47;;;3.17;;
56073;SDS011;41950;55.840;37.442;2022-12-24T18:31:15;4.30;;;3.08;;
56073;SDS011;41950;55.840;37.442;2022-12-24T18:33:43;3.80;;;2.63;;
56073;SDS011;41950;55.840;37.442;2022-12-24T18:36:10;3.90;;;2.95;;
56073;SDS011;41950;55.840;37.442;2022-12-24T18:38:36;4.13;;;3.40;;
56073;SDS011;41950;55.840;37.442;2022-12-24T18:41:09;3.72;;;2.53;;
56073;SDS011;41950;55.840;37.442;2022-12-24T18:43:38;3.70;;;2.53;;
56073;SDS011;41950;55.840;37.442;2022-12-24T18:46:10;2.83;;;1.70;;
56073;SDS011;41950;55.840;37.442;2022-12-24T18:48:37;3.60;;;2.40;;
56073;SDS011;41950;55.840;37.442;2022-12-24T18:51:04;3.92;;;2.65;;
56073;SDS011;41950;55.840;37.442;2022-12-24T18:53:30;3.70;;;2.45;;
56073;SDS011;41950;55.840;37.442;2022-12-24T18:56:00;3.42;;;2.25;;
56073;SDS011;41950;55.840;37.442;2022-12-24T18:58:34;3.05;;;2.03;;
56073;SDS011;41950;55.840;37.442;2022-12-24T19:01:08;3.50;;;2.30;;
56073;SDS011;41950;55.840;37.442;2022-12-24T19:03:38;3.70;;;2.20;;
56073;SDS011;41950;55.840;37.442;2022-12-24T19:06:04;3.92;;;2.50;;
56073;SDS011;41950;55.840;37.442;2022-12-24T19:08:30;4.85;;;2.63;;
56073;SDS011;41950;55.840;37.442;2022-12-24T19:10:56;5.35;;;3.10;;
56073;SDS011;41950;55.840;37.442;2022-12-24T19:13:22;5.13;;;2.97;;
56073;SDS011;41950;55.840;37.442;2022-12-24T19:15:47;3.90;;;2.95;;
56073;SDS011;41950;55.840;37.442;2022-12-24T19:18:13;5.38;;;3.30;;
56073;SDS011;41950;55.840;37.442;2022-12-24T19:20:39;4.93;;;3.40;;
56073;SDS011;41950;55.840;37.442;2022-12-24T19:23:05;4.53;;;3.30;;
56073;SDS011;41950;55.840;37.442;2022-12-24T19:25:32;4.60;;;3.63;;
56073;SDS011;41950;55.840;37.442;2022-12-24T19:27:59;4.85;;;3.42;;
56073;SDS011;41950;55.840;37.442;2022-12-24T19:30:25;4.15;;;3.35;;
56073;SDS011;41950;55.840;37.442;2022-12-24T19:32:50;5.10;;;3.40;;
56073;SDS011;41950;55.840;37.442;2022-12-24T19:35:16;5.18;;;3.15;;
56073;SDS011;41950;55.840;37.442;2022-12-24T19:37:42;4.15;;;3.33;;
56073;SDS011;41950;55.840;37.442;2022-12-24T19:40:07;4.22;;;2.90;;
56073;SDS011;41950;55.840;37.442;2022-12-24T19:42:33;4.88;;;3.25;;
56073;SDS011;41950;55.840;37.442;2022-12-24T19:44:59;4.07;;;3.00;;
56073;SDS011;41950;55.840;37.442;2022-12-24T19:47:25;4.95;;;3.08;;
56073;SDS011;41950;55.840;37.442;2022-12-24T19:49:51;4.43;;;3.10;;
56073;SDS011;41950;55.840;37.442;2022-12-24T19:52:17;4.47;;;3.53;;
56073;SDS011;41950;55.840;37.442;2022-12-24T19:54:42;3.92;;;3.00;;
56073;SDS011;41950;55.840;37.442;2022-12-24T19:57:08;5.18;;;3.30;;
56073;SDS011;41950;55.840;37.442;2022-12-24T19:59:34;3.83;;;3.10;;
56073;SDS011;41950;55.840;37.442;2022-12-24T20:01:59;4.57;;;2.90;;
56073;SDS011;41950;55.840;37.442;2022-12-24T20:04:26;4.20;;;2.97;;
56073;SDS011;41950;55.840;37.442;2022-12-24T20:06:51;4.03;;;2.90;;
56073;SDS011;41950;55.840;37.442;2022-12-24T20:09:17;4.60;;;3.83;;
56073;SDS011;41950;55.840;37.442;2022-12-24T20:11:43;4.57;;;3.70;;
56073;SDS011;41950;55.840;37.442;2022-12-24T20:14:09;4.43;;;3.60;;
56073;SDS011;41950;55.840;37.442;2022-12-24T20:16:36;4.80;;;3.63;;
56073;SDS011;41950;55.840;37.442;2022-12-24T20:19:03;4.10;;;2.83;;
56073;SDS011;41950;55.840;37.442;2022-12-24T20:21:30;4.75;;;3.20;;
56073;SDS011;41950;55.840;37.442;2022-12-24T20:23:56;4.70;;;3.33;;
56073;SDS011;41950;55.840;37.442;2022-12-24T20:26:23;4.38;;;2.90;;
56073;SDS011;41950;55.840;37.442;2022-12-24T20:28:51;3.60;;;2.55;;
56073;SDS011;41950;55.840;37.442;2022-12-24T20:31:18;4.40;;;3.08;;
56073;SDS011;41950;55.840;37.442;2022-12-24T20:33:46;4.75;;;2.78;;
56073;SDS011;41950;55.840;37.442;2022-12-24T20:36:12;4.00;;;3.10;;
56073;SDS011;41950;55.840;37.442;2022-12-24T20:38:40;4.85;;;3.38;;
56073;SDS011;41950;55.840;37.442;2022-12-24T20:41:06;4.28;;;3.42;;
56073;SDS011;41950;55.840;37.442;2022-12-24T20:43:37;4.67;;;3.37;;
56073;SDS011;41950;55.840;37.442;2022-12-24T20:46:14;5.20;;;3.05;;
56073;SDS011;41950;55.840;37.442;2022-12-24T20:48:47;3.92;;;3.03;;
56073;SDS011;41950;55.840;37.442;2022-12-24T20:51:18;4.57;;;3.08;;
56073;SDS011;41950;55.840;37.442;2022-12-24T20:56:15;4.05;;;2.95;;
56073;SDS011;41950;55.840;37.442;2022-12-24T20:58:42;4.20;;;3.00;;
56073;SDS011;41950;55.840;37.442;2022-12-24T21:01:13;4.60;;;3.20;;
56073;SDS011;41950;55.840;37.442;2022-12-24T21:03:41;4.68;;;2.85;;
56073;SDS011;41950;55.840;37.442;2022-12-24T21:06:10;4.38;;;2.80;;
56073;SDS011;41950;55.840;37.442;2022-12-24T21:08:36;4.47;;;3.20;;
56073;SDS011;41950;55.840;37.442;2022-12-24T21:11:02;4.38;;;3.30;;
56073;SDS011;41950;55.840;37.442;2022-12-24T21:13:46;4.32;;;3.42;;
56073;SDS011;41950;55.840;37.442;2022-12-24T21:16:12;4.43;;;3.25;;
56073;SDS011;41950;55.840;37.442;2022-12-24T21:18:38;4.90;;;3.78;;
56073;SDS011;41950;55.840;37.442;2022-12-24T21:21:04;5.10;;;3.60;;
56073;SDS011;41950;55.840;37.442;2022-12-24T21:23:29;6.20;;;5.00;;
56073;SDS011;41950;55.840;37.442;2022-12-24T21:25:56;4.78;;;3.80;;
56073;SDS011;41950;55.840;37.442;2022-12-24T21:28:32;5.53;;;4.13;;
56073;SDS011;41950;55.840;37.442;2022-12-24T21:31:09;4.25;;;3.05;;
56073;SDS011;41950;55.840;37.442;2022-12-24T21:33:43;4.75;;;3.40;;
56073;SDS011;41950;55.840;37.442;2022-12-24T21:36:16;5.45;;;3.42;;
56073;SDS011;41950;55.840;37.442;2022-12-24T21:38:51;5.35;;;3.47;;
56073;SDS011;41950;55.840;37.442;2022-12-24T21:41:30;4.95;;;3.70;;
56073;SDS011;41950;55.840;37.442;2022-12-24T21:44:01;4.43;;;3.20;;
56073;SDS011;41950;55.840;37.442;2022-12-24T21:46:40;4.40;;;3.60;;
56073;SDS011;41950;55.840;37.442;2022-12-24T21:49:15;4.20;;;3.25;;
56073;SDS011;41950;55.840;37.442;2022-12-24T21:52:05;4.70;;;3.65;;
56073;SDS011;41950;55.840;37.442;2022-12-24T21:54:52;4.63;;;3.30;;
56073;SDS011;41950;55.840;37.442;2022-12-24T21:57:24;4.72;;;3.60;;
56073;SDS011;41950;55.840;37.442;2022-12-24T22:00:21;5.03;;;3.67;;
56073;SDS011;41950;55.840;37.442;2022-12-24T22:02:57;5.57;;;4.38;;
56073;SDS011;41950;55.840;37.442;2022-12-24T22:05:40;4.72;;;3.60;;
56073;SDS011;41950;55.840;37.442;2022-12-24T22:08:25;3.47;;;2.33;;
56073;SDS011;41950;55.840;37.442;2022-12-24T22:11:13;3.65;;;2.10;;
56073;SDS011;41950;55.840;37.442;2022-12-24T22:14:03;3.97;;;2.78;;
56073;SDS011;41950;55.840;37.442;2022-12-24T22:16:43;3.42;;;2.22;;
56073;SDS011;41950;55.840;37.442;2022-12-24T22:19:15;3.25;;;2.35;;
56073;SDS011;41950;55.840;37.442;2022-12-24T22:21:49;3.38;;;2.10;;
56073;SDS011;41950;55.840;37.442;2022-12-24T22:24:18;4.05;;;2.80;;
56073;SDS011;41950;55.840;37.442;2022-12-24T22:26:51;3.08;;;2.00;;
56073;SDS011;41950;55.840;37.442;2022-12-24T22:29:37;3.15;;;2.00;;
56073;SDS011;41950;55.840;37.442;2022-12-24T22:35:39;3.10;;;2.10;;
56073;SDS011;41950;55.840;37.442;2022-12-24T22:38:21;2.30;;;1.45;;
56073;SDS011;41950;55.840;37.442;2022-12-24T22:41:30;3.42;;;1.98;;
56073;SDS011;41950;55.840;37.442;2022-12-24T22:44:17;3.10;;;1.67;;
56073;SDS011;41950;55.840;37.442;2022-12-24T22:46:52;2.42;;;1.30;;
56073;SDS011;41950;55.840;37.442;2022-12-24T22:49:26;2.38;;;1.20;;
56073;SDS011;41950;55.840;37.442;2022-12-24T22:55:04;1.30;;;0.70;;
56073;SDS011;41950;55.840;37.442;2022-12-24T22:58:01;3.33;;;1.35;;
56073;SDS011;41950;55.840;37.442;2022-12-24T23:15:10;2.70;;;1.52;;
56073;SDS011;41950;55.840;37.442;2022-12-24T23:17:36;3.10;;;1.50;;
56073;SDS011;41950;55.840;37.442;2022-12-24T23:20:01;3.03;;;1.70;;
56073;SDS011;41950;55.840;37.442;2022-12-24T23:22:28;3.63;;;1.40;;
56073;SDS011;41950;55.840;37.442;2022-12-24T23:24:54;3.38;;;1.83;;
56073;SDS011;41950;55.840;37.442;2022-12-24T23:27:19;3.22;;;1.77;;
56073;SDS011;41950;55.840;37.442;2022-12-24T23:29:45;3.50;;;1.73;;
56073;SDS011;41950;55.840;37.442;2022-12-24T23:32:10;2.70;;;1.40;;
56073;SDS011;41950;55.840;37.442;2022-12-24T23:34:36;3.10;;;1.90;;
56073;SDS011;41950;55.840;37.442;2022-12-24T23:37:02;4.15;;;1.90;;
56073;SDS011;41950;55.840;37.442;2022-12-24T23:39:27;2.80;;;1.50;;
56073;SDS011;41950;55.840;37.442;2022-12-24T23:41:53;4.50;;;1.40;;
56073;SDS011;41950;55.840;37.442;2022-12-24T23:44:18;2.95;;;1.77;;
56073;SDS011;41950;55.840;37.442;2022-12-24T23:46:44;2.88;;;1.55;;